sensor_id;sensor_type;location;lat;lon;timestamp;P1;durP1;ratioP1;P2;durP2;ratioP2
76814;SDS011;65768;49.906;19.384;2023-02-01T00:01:25;3.90;;;2.40;;
76814;SDS011;65768;49.906;19.384;2023-02-01T00:03:53;5.40;;;2.30;;
76814;SDS011;65768;49.906;19.384;2023-02-01T00:06:21;3.90;;;2.30;;
76814;SDS011;65768;49.906;19.384;2023-02-01T00:08:53;2.40;;;1.70;;
76814;SDS011;65768;49.906;19.384;2023-02-01T00:11:23;2.40;;;1.90;;
76814;SDS011;65768;49.906;19.384;2023-02-01T00:13:51;3.50;;;2.10;;
76814;SDS011;65768;49.906;19.384;2023-02-01T00:16:24;3.70;;;1.80;;
76814;SDS011;65768;49.906;19.384;2023-02-01T00:18:57;3.50;;;2.30;;
76814;SDS011;65768;49.906;19.384;2023-02-01T00:21:37;5.90;;;3.00;;
76814;SDS011;65768;49.906;19.384;2023-02-01T00:24:05;3.90;;;2.40;;
76814;SDS011;65768;49.906;19.384;2023-02-01T00:26:35;4.80;;;2.50;;
76814;SDS011;65768;49.906;19.384;2023-02-01T00:29:07;7.90;;;2.60;;
76814;SDS011;65768;49.906;19.384;2023-02-01T00:34:14;5.10;;;3.30;;
76814;SDS011;65768;49.906;19.384;2023-02-01T00:36:43;6.20;;;1.70;;
76814;SDS011;65768;49.906;19.384;2023-02-01T00:39:12;5.40;;;2.70;;
76814;SDS011;65768;49.906;19.384;2023-02-01T00:41:41;5.20;;;2.90;;
76814;SDS011;65768;49.906;19.384;2023-02-01T00:44:10;6.80;;;2.40;;
76814;SDS011;65768;49.906;19.384;2023-02-01T00:46:38;3.10;;;1.80;;
76814;SDS011;65768;49.906;19.384;2023-02-01T00:49:06;3.50;;;1.90;;
76814;SDS011;65768;49.906;19.384;2023-02-01T00:51:36;6.50;;;2.50;;
76814;SDS011;65768;49.906;19.384;2023-02-01T00:54:04;2.80;;;1.40;;
76814;SDS011;65768;49.906;19.384;2023-02-01T00:56:32;4.90;;;2.00;;
76814;SDS011;65768;49.906;19.384;2023-02-01T00:59:00;4.50;;;2.40;;
76814;SDS011;65768;49.906;19.384;2023-02-01T01:01:29;4.50;;;2.00;;
76814;SDS011;65768;49.906;19.384;2023-02-01T01:03:58;4.90;;;2.30;;
76814;SDS011;65768;49.906;19.384;2023-02-01T01:06:28;6.00;;;2.40;;
76814;SDS011;65768;49.906;19.384;2023-02-01T01:09:00;3.60;;;2.20;;
76814;SDS011;65768;49.906;19.384;2023-02-01T01:11:31;3.10;;;1.90;;
76814;SDS011;65768;49.906;19.384;2023-02-01T01:14:01;3.40;;;2.00;;
76814;SDS011;65768;49.906;19.384;2023-02-01T01:16:31;7.50;;;2.60;;
76814;SDS011;65768;49.906;19.384;2023-02-01T01:19:00;3.20;;;2.10;;
76814;SDS011;65768;49.906;19.384;2023-02-01T01:21:29;3.90;;;2.40;;
76814;SDS011;65768;49.906;19.384;2023-02-01T01:23:58;2.70;;;1.80;;
76814;SDS011;65768;49.906;19.384;2023-02-01T01:26:27;6.70;;;2.40;;
76814;SDS011;65768;49.906;19.384;2023-02-01T01:28:57;3.20;;;2.00;;
76814;SDS011;65768;49.906;19.384;2023-02-01T01:31:26;3.30;;;1.70;;
76814;SDS011;65768;49.906;19.384;2023-02-01T01:33:56;3.60;;;2.10;;
76814;SDS011;65768;49.906;19.384;2023-02-01T01:36:26;3.30;;;2.10;;
76814;SDS011;65768;49.906;19.384;2023-02-01T01:38:55;3.00;;;1.90;;
76814;SDS011;65768;49.906;19.384;2023-02-01T01:41:25;2.80;;;2.10;;
76814;SDS011;65768;49.906;19.384;2023-02-01T01:44:00;3.00;;;1.80;;
76814;SDS011;65768;49.906;19.384;2023-02-01T01:46:31;8.70;;;2.70;;
76814;SDS011;65768;49.906;19.384;2023-02-01T01:49:14;3.00;;;1.90;;
76814;SDS011;65768;49.906;19.384;2023-02-01T01:54:24;4.00;;;2.60;;
76814;SDS011;65768;49.906;19.384;2023-02-01T16:48:28;11.60;;;4.20;;
76814;SDS011;65768;49.906;19.384;2023-02-01T16:51:09;8.10;;;3.70;;
76814;SDS011;65768;49.906;19.384;2023-02-01T16:53:40;10.10;;;5.40;;
76814;SDS011;65768;49.906;19.384;2023-02-01T16:58:43;15.60;;;6.40;;
76814;SDS011;65768;49.906;19.384;2023-02-01T17:01:12;14.30;;;6.10;;
76814;SDS011;65768;49.906;19.384;2023-02-01T17:03:41;13.40;;;7.20;;
76814;SDS011;65768;49.906;19.384;2023-02-01T17:06:15;8.30;;;4.20;;
76814;SDS011;65768;49.906;19.384;2023-02-01T17:08:47;8.10;;;3.70;;
76814;SDS011;65768;49.906;19.384;2023-02-01T17:11:20;9.70;;;3.90;;
76814;SDS011;65768;49.906;19.384;2023-02-01T17:13:48;12.10;;;5.30;;
76814;SDS011;65768;49.906;19.384;2023-02-01T17:19:04;13.40;;;5.70;;
76814;SDS011;65768;49.906;19.384;2023-02-01T17:21:40;9.40;;;4.70;;
76814;SDS011;65768;49.906;19.384;2023-02-01T17:24:13;7.80;;;3.60;;
76814;SDS011;65768;49.906;19.384;2023-02-01T17:26:42;12.00;;;4.40;;
76814;SDS011;65768;49.906;19.384;2023-02-01T17:29:11;16.40;;;6.90;;
76814;SDS011;65768;49.906;19.384;2023-02-01T17:31:40;14.60;;;6.10;;
76814;SDS011;65768;49.906;19.384;2023-02-01T17:34:12;12.20;;;4.70;;
76814;SDS011;65768;49.906;19.384;2023-02-01T17:36:46;12.80;;;5.90;;
76814;SDS011;65768;49.906;19.384;2023-02-01T17:39:15;12.50;;;4.90;;
76814;SDS011;65768;49.906;19.384;2023-02-01T17:42:03;13.40;;;5.20;;
76814;SDS011;65768;49.906;19.384;2023-02-01T17:44:32;10.30;;;4.70;;
76814;SDS011;65768;49.906;19.384;2023-02-01T17:47:00;13.10;;;5.60;;
76814;SDS011;65768;49.906;19.384;2023-02-01T17:49:29;16.30;;;7.50;;
76814;SDS011;65768;49.906;19.384;2023-02-01T17:51:57;10.80;;;4.50;;
76814;SDS011;65768;49.906;19.384;2023-02-01T17:54:25;9.30;;;4.20;;
76814;SDS011;65768;49.906;19.384;2023-02-01T17:56:53;10.70;;;4.60;;
76814;SDS011;65768;49.906;19.384;2023-02-01T17:59:21;8.10;;;3.30;;
76814;SDS011;65768;49.906;19.384;2023-02-01T18:01:49;6.50;;;3.80;;
76814;SDS011;65768;49.906;19.384;2023-02-01T18:04:19;10.00;;;4.20;;
76814;SDS011;65768;49.906;19.384;2023-02-01T18:06:48;11.50;;;4.30;;
76814;SDS011;65768;49.906;19.384;2023-02-01T18:09:17;10.00;;;4.60;;
76814;SDS011;65768;49.906;19.384;2023-02-01T18:11:45;9.50;;;4.70;;
76814;SDS011;65768;49.906;19.384;2023-02-01T18:14:16;11.70;;;4.60;;
76814;SDS011;65768;49.906;19.384;2023-02-01T18:16:46;8.40;;;3.90;;
76814;SDS011;65768;49.906;19.384;2023-02-01T18:19:15;6.30;;;2.90;;
76814;SDS011;65768;49.906;19.384;2023-02-01T18:21:45;7.80;;;3.30;;
76814;SDS011;65768;49.906;19.384;2023-02-01T18:24:15;6.90;;;2.70;;
76814;SDS011;65768;49.906;19.384;2023-02-01T18:29:20;9.70;;;3.00;;
76814;SDS011;65768;49.906;19.384;2023-02-01T18:31:48;7.90;;;3.40;;
76814;SDS011;65768;49.906;19.384;2023-02-01T18:34:18;6.10;;;2.70;;
76814;SDS011;65768;49.906;19.384;2023-02-01T18:36:50;9.20;;;3.50;;
76814;SDS011;65768;49.906;19.384;2023-02-01T18:39:20;6.30;;;3.30;;
76814;SDS011;65768;49.906;19.384;2023-02-01T18:41:49;10.70;;;4.80;;
76814;SDS011;65768;49.906;19.384;2023-02-01T18:44:19;9.30;;;4.10;;
76814;SDS011;65768;49.906;19.384;2023-02-01T18:46:47;7.90;;;3.00;;
76814;SDS011;65768;49.906;19.384;2023-02-01T18:49:16;9.40;;;3.90;;
76814;SDS011;65768;49.906;19.384;2023-02-01T18:51:47;10.40;;;4.30;;
76814;SDS011;65768;49.906;19.384;2023-02-01T18:54:16;9.50;;;4.70;;
76814;SDS011;65768;49.906;19.384;2023-02-01T18:56:44;11.20;;;5.30;;
76814;SDS011;65768;49.906;19.384;2023-02-01T18:59:13;7.00;;;2.70;;
76814;SDS011;65768;49.906;19.384;2023-02-01T19:01:44;8.70;;;3.10;;
76814;SDS011;65768;49.906;19.384;2023-02-01T19:04:13;6.60;;;3.00;;
76814;SDS011;65768;49.906;19.384;2023-02-01T19:06:42;8.40;;;3.50;;
76814;SDS011;65768;49.906;19.384;2023-02-01T19:09:11;7.30;;;3.70;;
76814;SDS011;65768;49.906;19.384;2023-02-01T19:11:39;6.60;;;2.60;;
76814;SDS011;65768;49.906;19.384;2023-02-01T19:14:07;7.20;;;3.80;;
76814;SDS011;65768;49.906;19.384;2023-02-01T19:16:36;7.30;;;2.80;;
76814;SDS011;65768;49.906;19.384;2023-02-01T19:19:06;7.80;;;2.80;;
76814;SDS011;65768;49.906;19.384;2023-02-01T19:21:35;10.90;;;5.10;;
76814;SDS011;65768;49.906;19.384;2023-02-01T19:24:04;11.30;;;3.90;;
76814;SDS011;65768;49.906;19.384;2023-02-01T19:26:33;9.20;;;3.30;;
76814;SDS011;65768;49.906;19.384;2023-02-01T19:29:02;11.80;;;5.00;;
76814;SDS011;65768;49.906;19.384;2023-02-01T19:31:31;14.50;;;6.10;;
76814;SDS011;65768;49.906;19.384;2023-02-01T19:34:00;13.40;;;5.10;;
76814;SDS011;65768;49.906;19.384;2023-02-01T19:36:28;8.40;;;4.50;;
76814;SDS011;65768;49.906;19.384;2023-02-01T19:38:56;11.60;;;5.20;;
76814;SDS011;65768;49.906;19.384;2023-02-01T19:41:24;9.60;;;4.80;;
76814;SDS011;65768;49.906;19.384;2023-02-01T19:43:53;9.90;;;4.90;;
76814;SDS011;65768;49.906;19.384;2023-02-01T19:46:21;13.60;;;5.00;;
76814;SDS011;65768;49.906;19.384;2023-02-01T19:48:50;10.50;;;4.20;;
76814;SDS011;65768;49.906;19.384;2023-02-01T19:51:19;10.40;;;3.90;;
76814;SDS011;65768;49.906;19.384;2023-02-01T19:53:47;16.80;;;5.40;;
76814;SDS011;65768;49.906;19.384;2023-02-01T19:56:15;13.50;;;5.20;;
76814;SDS011;65768;49.906;19.384;2023-02-01T19:58:43;11.10;;;4.00;;
76814;SDS011;65768;49.906;19.384;2023-02-01T20:01:12;10.40;;;4.50;;
76814;SDS011;65768;49.906;19.384;2023-02-01T20:03:41;10.00;;;3.80;;
76814;SDS011;65768;49.906;19.384;2023-02-01T20:06:09;10.40;;;4.10;;
76814;SDS011;65768;49.906;19.384;2023-02-01T20:08:38;10.50;;;4.40;;
76814;SDS011;65768;49.906;19.384;2023-02-01T20:11:06;6.90;;;2.50;;
76814;SDS011;65768;49.906;19.384;2023-02-01T20:13:36;9.60;;;3.90;;
76814;SDS011;65768;49.906;19.384;2023-02-01T20:16:06;9.20;;;3.70;;
76814;SDS011;65768;49.906;19.384;2023-02-01T20:18:35;7.50;;;2.30;;
76814;SDS011;65768;49.906;19.384;2023-02-01T20:21:04;9.50;;;4.30;;
76814;SDS011;65768;49.906;19.384;2023-02-01T20:23:34;10.00;;;3.40;;
76814;SDS011;65768;49.906;19.384;2023-02-01T20:26:03;16.40;;;5.50;;
76814;SDS011;65768;49.906;19.384;2023-02-01T20:28:33;8.40;;;3.10;;
76814;SDS011;65768;49.906;19.384;2023-02-01T20:31:02;9.90;;;4.10;;
76814;SDS011;65768;49.906;19.384;2023-02-01T20:33:31;11.90;;;4.30;;
76814;SDS011;65768;49.906;19.384;2023-02-01T20:36:00;9.20;;;4.00;;
76814;SDS011;65768;49.906;19.384;2023-02-01T20:38:28;10.80;;;3.10;;
76814;SDS011;65768;49.906;19.384;2023-02-01T20:41:06;3.90;;;2.10;;
76814;SDS011;65768;49.906;19.384;2023-02-01T20:46:03;8.50;;;3.20;;
76814;SDS011;65768;49.906;19.384;2023-02-01T20:48:32;4.60;;;2.30;;
76814;SDS011;65768;49.906;19.384;2023-02-01T20:51:00;10.90;;;3.50;;
76814;SDS011;65768;49.906;19.384;2023-02-01T20:53:28;8.20;;;3.70;;
76814;SDS011;65768;49.906;19.384;2023-02-01T20:55:57;7.30;;;3.30;;
76814;SDS011;65768;49.906;19.384;2023-02-01T20:58:26;7.30;;;3.60;;
76814;SDS011;65768;49.906;19.384;2023-02-01T21:00:54;8.20;;;2.80;;
76814;SDS011;65768;49.906;19.384;2023-02-01T21:03:22;6.10;;;2.20;;
76814;SDS011;65768;49.906;19.384;2023-02-01T21:05:52;7.00;;;2.80;;
76814;SDS011;65768;49.906;19.384;2023-02-01T21:08:23;6.40;;;2.50;;
76814;SDS011;65768;49.906;19.384;2023-02-01T21:13:24;8.10;;;3.30;;
76814;SDS011;65768;49.906;19.384;2023-02-01T21:15:53;8.50;;;3.00;;
76814;SDS011;65768;49.906;19.384;2023-02-01T21:18:21;4.60;;;1.70;;
76814;SDS011;65768;49.906;19.384;2023-02-01T21:20:50;6.50;;;2.80;;
76814;SDS011;65768;49.906;19.384;2023-02-01T21:23:19;4.60;;;2.20;;
76814;SDS011;65768;49.906;19.384;2023-02-01T21:25:47;8.60;;;3.00;;
76814;SDS011;65768;49.906;19.384;2023-02-01T21:28:16;11.10;;;3.10;;
76814;SDS011;65768;49.906;19.384;2023-02-01T21:30:44;7.70;;;2.70;;
76814;SDS011;65768;49.906;19.384;2023-02-01T21:33:13;6.90;;;2.40;;
76814;SDS011;65768;49.906;19.384;2023-02-01T21:35:41;7.20;;;4.40;;
76814;SDS011;65768;49.906;19.384;2023-02-01T21:38:10;7.70;;;3.80;;
76814;SDS011;65768;49.906;19.384;2023-02-01T21:40:39;9.50;;;4.50;;
76814;SDS011;65768;49.906;19.384;2023-02-01T21:43:07;7.20;;;2.90;;
76814;SDS011;65768;49.906;19.384;2023-02-01T21:45:36;10.00;;;4.10;;
76814;SDS011;65768;49.906;19.384;2023-02-01T21:48:05;9.50;;;4.10;;
76814;SDS011;65768;49.906;19.384;2023-02-01T21:50:35;5.70;;;3.40;;
76814;SDS011;65768;49.906;19.384;2023-02-01T21:53:05;7.70;;;3.50;;
76814;SDS011;65768;49.906;19.384;2023-02-01T21:55:33;6.70;;;2.80;;
76814;SDS011;65768;49.906;19.384;2023-02-01T21:58:01;5.90;;;3.00;;
76814;SDS011;65768;49.906;19.384;2023-02-01T22:00:30;5.90;;;2.80;;
76814;SDS011;65768;49.906;19.384;2023-02-01T22:02:59;8.80;;;3.40;;
76814;SDS011;65768;49.906;19.384;2023-02-01T22:05:27;5.20;;;2.50;;
76814;SDS011;65768;49.906;19.384;2023-02-01T22:07:56;3.50;;;2.10;;
76814;SDS011;65768;49.906;19.384;2023-02-01T22:10:24;2.90;;;1.70;;
76814;SDS011;65768;49.906;19.384;2023-02-01T22:12:52;5.20;;;2.90;;
76814;SDS011;65768;49.906;19.384;2023-02-01T22:15:20;3.50;;;1.70;;
76814;SDS011;65768;49.906;19.384;2023-02-01T22:17:49;6.80;;;3.10;;
76814;SDS011;65768;49.906;19.384;2023-02-01T22:20:17;5.20;;;1.90;;
76814;SDS011;65768;49.906;19.384;2023-02-01T22:22:46;4.20;;;2.30;;
76814;SDS011;65768;49.906;19.384;2023-02-01T22:25:15;3.30;;;1.50;;
76814;SDS011;65768;49.906;19.384;2023-02-01T22:27:43;6.80;;;2.30;;
76814;SDS011;65768;49.906;19.384;2023-02-01T22:30:11;3.50;;;1.40;;
76814;SDS011;65768;49.906;19.384;2023-02-01T22:32:40;2.70;;;1.50;;
76814;SDS011;65768;49.906;19.384;2023-02-01T22:35:09;4.30;;;2.10;;
76814;SDS011;65768;49.906;19.384;2023-02-01T22:37:37;3.10;;;1.90;;
76814;SDS011;65768;49.906;19.384;2023-02-01T22:40:05;5.10;;;2.10;;
76814;SDS011;65768;49.906;19.384;2023-02-01T22:42:34;5.50;;;2.00;;
76814;SDS011;65768;49.906;19.384;2023-02-01T22:45:04;5.60;;;2.60;;
76814;SDS011;65768;49.906;19.384;2023-02-01T22:47:32;2.80;;;1.30;;
76814;SDS011;65768;49.906;19.384;2023-02-01T22:50:01;4.90;;;1.90;;
76814;SDS011;65768;49.906;19.384;2023-02-01T22:52:29;5.10;;;2.30;;
76814;SDS011;65768;49.906;19.384;2023-02-01T22:54:57;8.00;;;2.60;;
76814;SDS011;65768;49.906;19.384;2023-02-01T22:57:25;3.70;;;1.80;;
76814;SDS011;65768;49.906;19.384;2023-02-01T22:59:53;4.20;;;2.60;;
76814;SDS011;65768;49.906;19.384;2023-02-01T23:02:22;6.70;;;2.70;;
76814;SDS011;65768;49.906;19.384;2023-02-01T23:04:50;2.90;;;1.90;;
76814;SDS011;65768;49.906;19.384;2023-02-01T23:07:18;8.00;;;2.20;;
76814;SDS011;65768;49.906;19.384;2023-02-01T23:09:46;8.00;;;2.80;;
76814;SDS011;65768;49.906;19.384;2023-02-01T23:12:15;2.50;;;2.10;;
76814;SDS011;65768;49.906;19.384;2023-02-01T23:14:43;5.30;;;2.30;;
76814;SDS011;65768;49.906;19.384;2023-02-01T23:17:39;7.40;;;2.30;;
76814;SDS011;65768;49.906;19.384;2023-02-01T23:20:07;5.30;;;2.00;;
76814;SDS011;65768;49.906;19.384;2023-02-01T23:22:45;5.40;;;2.00;;
76814;SDS011;65768;49.906;19.384;2023-02-01T23:25:15;5.20;;;1.60;;
76814;SDS011;65768;49.906;19.384;2023-02-01T23:27:45;3.30;;;1.70;;
76814;SDS011;65768;49.906;19.384;2023-02-01T23:30:14;4.80;;;2.30;;
76814;SDS011;65768;49.906;19.384;2023-02-01T23:32:42;3.60;;;1.90;;
76814;SDS011;65768;49.906;19.384;2023-02-01T23:35:10;2.00;;;1.50;;
76814;SDS011;65768;49.906;19.384;2023-02-01T23:37:40;6.50;;;2.10;;
76814;SDS011;65768;49.906;19.384;2023-02-01T23:40:08;3.30;;;1.30;;
76814;SDS011;65768;49.906;19.384;2023-02-01T23:42:37;5.60;;;1.60;;
76814;SDS011;65768;49.906;19.384;2023-02-01T23:45:06;4.40;;;1.40;;
76814;SDS011;65768;49.906;19.384;2023-02-01T23:47:34;3.20;;;1.30;;
76814;SDS011;65768;49.906;19.384;2023-02-01T23:50:02;4.00;;;1.40;;
76814;SDS011;65768;49.906;19.384;2023-02-01T23:52:30;3.00;;;1.70;;
76814;SDS011;65768;49.906;19.384;2023-02-01T23:54:58;4.00;;;1.40;;
76814;SDS011;65768;49.906;19.384;2023-02-01T23:57:26;4.80;;;1.60;;
76814;SDS011;65768;49.906;19.384;2023-02-01T23:59:54;5.40;;;1.80;;
